createdAt,value
2023-01-17T00:00:00.253Z,98313.47
2023-01-17T00:02:02.470Z,98320.69
2023-01-17T00:04:04.294Z,98311.03
2023-01-17T00:06:06.211Z,98310.19
2023-01-17T00:08:12.554Z,98308.88
2023-01-17T00:10:19.660Z,98297.91
2023-01-17T00:12:21.543Z,98304.59
2023-01-17T00:14:23.688Z,98285.28
2023-01-17T00:16:25.396Z,98298.91
2023-01-17T00:18:27.055Z,98289.72
2023-01-17T00:20:31.281Z,98276.25
2023-01-17T00:22:33.597Z,98280.38
2023-01-17T00:24:35.395Z,98275.59
2023-01-17T00:26:37.204Z,98256.78
2023-01-17T00:28:41.108Z,98283.31
2023-01-17T00:30:42.932Z,98265.44
2023-01-17T00:32:44.777Z,98218.78
2023-01-17T00:34:46.452Z,98257.78
2023-01-17T00:36:48.150Z,98266.94
2023-01-17T00:38:50.214Z,98274.47
2023-01-17T00:40:51.983Z,98275.31
2023-01-17T00:42:53.656Z,98271.88
2023-01-17T00:44:55.743Z,98252.56
2023-01-17T00:46:57.424Z,98273.84
2023-01-17T00:48:59.256Z,98266.13
2023-01-17T00:51:03.637Z,98235.34
2023-01-17T00:53:05.637Z,98250.53
2023-01-17T00:55:07.424Z,98247.59
2023-01-17T00:57:09.525Z,98232.88
2023-01-17T00:59:11.209Z,98257.13
2023-01-17T01:01:12.988Z,98253.03
2023-01-17T01:03:14.893Z,98239.91
2023-01-17T01:05:17.261Z,98231.22
2023-01-17T01:07:18.927Z,98236.97
2023-01-17T01:09:21.076Z,98235.66
2023-01-17T01:11:22.749Z,98259.75
2023-01-17T01:13:26.118Z,98261.38
2023-01-17T01:15:27.944Z,98238.25
2023-01-17T01:17:29.634Z,98257.25
2023-01-17T01:19:31.563Z,98250.88
2023-01-17T01:21:33.691Z,98223.19
2023-01-17T01:23:35.827Z,98247.44
2023-01-17T01:25:37.487Z,98232.31
2023-01-17T01:27:39.441Z,98216.78
2023-01-17T01:29:41.143Z,98251.66
2023-01-17T01:31:42.858Z,98244.78
2023-01-17T01:33:44.729Z,98241.84
2023-01-17T01:35:55.959Z,98230.53
2023-01-17T01:37:57.662Z,98233.97
2023-01-17T01:39:59.643Z,98214.81
2023-01-17T01:42:01.304Z,98219.59
2023-01-17T01:44:03.011Z,98168.63
2023-01-17T01:46:05.512Z,98228.13
2023-01-17T01:48:26.788Z,98215.31
2023-01-17T01:50:30.598Z,98219.41
2023-01-17T01:52:35.120Z,98199.41
2023-01-17T01:54:55.858Z,98211.34
2023-01-17T01:57:01.534Z,98211.06
2023-01-17T01:59:07.328Z,98213.00
2023-01-17T02:01:09.628Z,98205.81
2023-01-17T02:03:16.753Z,98133.72
2023-01-17T02:05:22.967Z,98203.00
2023-01-17T02:07:31.313Z,98203.00
2023-01-17T02:09:33.064Z,98200.06
2023-01-17T02:11:37.373Z,98187.78
2023-01-17T02:13:39.867Z,98170.25
2023-01-17T02:16:02.916Z,98185.53
2023-01-17T02:18:22.698Z,98182.09
2023-01-17T02:20:42.905Z,98175.38
2023-01-17T02:23:05.663Z,98173.41
2023-01-17T02:25:07.471Z,98164.09
2023-01-17T02:27:16.248Z,98155.41
2023-01-17T02:29:54.772Z,98147.25
2023-01-17T02:32:14.816Z,98151.16
2023-01-17T02:34:32.477Z,98159.94
2023-01-17T02:36:42.367Z,98155.06
2023-01-17T02:38:58.193Z,98151.47
2023-01-17T02:41:27.821Z,98147.72
2023-01-17T02:43:29.831Z,98145.28
2023-01-17T02:45:31.791Z,98143.47
2023-01-17T02:47:33.868Z,98149.03
2023-01-17T02:49:35.616Z,98144.63
2023-01-17T02:51:46.691Z,98113.50
2023-01-17T02:54:12.568Z,98136.78
2023-01-17T02:56:32.792Z,98145.44
2023-01-17T02:59:02.581Z,98133.84
2023-01-17T03:01:07.135Z,98139.03
2023-01-17T03:03:33.394Z,98133.66
2023-01-17T03:05:46.430Z,98107.81
2023-01-17T03:07:48.540Z,98112.06
2023-01-17T03:09:55.971Z,98128.41
2023-01-17T03:11:59.693Z,98112.38
2023-01-17T03:14:01.607Z,98121.53
2023-01-17T03:16:07.075Z,98120.75
2023-01-17T03:18:13.727Z,98113.38
2023-01-17T03:20:16.081Z,98112.22
2023-01-17T03:22:17.794Z,98126.47
2023-01-17T03:24:19.547Z,98120.25
2023-01-17T03:26:21.431Z,98047.94
2023-01-17T03:28:23.125Z,98096.69
2023-01-17T03:30:27.469Z,98091.28
2023-01-17T03:32:29.204Z,98122.53
2023-01-17T03:34:30.919Z,98113.19
2023-01-17T03:36:32.668Z,98118.75
2023-01-17T03:38:34.419Z,98114.69
2023-01-17T03:40:36.141Z,98114.84
2023-01-17T03:42:37.892Z,98118.13
2023-01-17T03:44:39.587Z,98115.81
2023-01-17T03:46:41.400Z,98111.88
2023-01-17T03:48:43.280Z,98116.28
2023-01-17T03:50:45.044Z,98116.78
2023-01-17T03:52:46.717Z,98119.41
2023-01-17T03:54:49.247Z,98106.16
2023-01-17T03:56:50.979Z,98117.63
2023-01-17T03:58:52.667Z,98114.34
2023-01-17T04:00:54.730Z,98097.81
2023-01-17T04:02:56.502Z,98112.38
2023-01-17T04:04:58.197Z,98108.25
2023-01-17T04:07:00.136Z,98105.34
2023-01-17T04:09:01.854Z,98102.41
2023-01-17T04:11:03.570Z,98103.84
2023-01-17T04:13:05.500Z,98099.94
2023-01-17T04:15:07.765Z,98104.81
2023-01-17T04:17:12.631Z,98092.06
2023-01-17T04:19:14.735Z,98090.91
2023-01-17T04:21:16.452Z,98105.31
2023-01-17T04:23:18.535Z,98101.88
2023-01-17T04:25:20.635Z,98090.28
2023-01-17T04:27:22.344Z,98087.31
2023-01-17T04:29:24.134Z,98080.94
2023-01-17T04:31:26.387Z,98094.84
2023-01-17T04:33:28.099Z,98096.66
2023-01-17T04:35:30.883Z,98093.72
2023-01-17T04:37:33.034Z,98097.63
2023-01-17T04:39:34.731Z,98075.56
2023-01-17T04:41:36.470Z,98097.94
2023-01-17T04:43:38.405Z,98088.63
2023-01-17T04:45:40.167Z,98090.59
2023-01-17T04:47:41.931Z,98075.06
2023-01-17T04:49:44.269Z,98062.47
2023-01-17T04:51:46.013Z,98077.34
2023-01-17T04:53:47.690Z,98078.03
2023-01-17T04:55:49.663Z,98082.91
2023-01-17T04:57:51.481Z,98074.75
2023-01-17T04:59:53.199Z,98046.63
2023-01-17T05:01:55.393Z,98066.88
2023-01-17T05:03:57.134Z,98075.88
2023-01-17T05:05:59.173Z,98076.38
2023-01-17T05:08:01.283Z,98078.19
2023-01-17T05:10:03.411Z,98083.91
2023-01-17T05:12:05.300Z,98085.22
2023-01-17T05:14:07.464Z,98085.38
2023-01-17T05:16:09.264Z,98089.31
2023-01-17T05:18:16.568Z,98092.09
2023-01-17T05:20:19.686Z,98086.03
2023-01-17T05:22:21.366Z,98073.13
2023-01-17T05:24:23.049Z,98098.31
2023-01-17T05:26:24.962Z,98077.84
2023-01-17T05:28:26.787Z,98109.09
2023-01-17T05:30:30.781Z,98097.34
2023-01-17T05:32:32.591Z,98109.09
2023-01-17T05:34:34.337Z,98102.22
2023-01-17T05:36:36.043Z,98105.34
2023-01-17T05:38:38.071Z,98091.75
2023-01-17T05:40:39.807Z,98108.25
2023-01-17T05:42:45.626Z,98090.44
2023-01-17T05:44:47.516Z,98111.88
2023-01-17T05:46:49.208Z,98116.97
2023-01-17T05:48:50.877Z,98115.66
2023-01-17T05:50:52.713Z,98094.72
2023-01-17T05:53:00.003Z,98116.81
2023-01-17T05:55:01.692Z,98113.38
2023-01-17T05:57:03.858Z,98098.63
2023-01-17T05:59:05.582Z,98119.59
2023-01-17T06:01:07.337Z,98120.56
2023-01-17T06:03:09.680Z,98120.25
2023-01-17T06:05:11.755Z,98119.44
2023-01-17T06:07:13.430Z,98116.81
2023-01-17T06:09:15.461Z,98121.72
2023-01-17T06:11:17.253Z,98128.75
2023-01-17T06:13:18.962Z,98130.22
2023-01-17T06:15:21.075Z,98122.84
2023-01-17T06:17:22.985Z,98130.69
2023-01-17T06:19:24.687Z,98124.13
2023-01-17T06:21:26.551Z,98129.72
2023-01-17T06:23:28.233Z,98108.75
2023-01-17T06:25:31.051Z,98111.53
2023-01-17T06:27:33.190Z,98068.47
2023-01-17T06:29:34.877Z,98110.69
2023-01-17T06:31:36.700Z,98137.84
2023-01-17T06:33:38.537Z,98143.88
2023-01-17T06:35:40.389Z,98137.81
2023-01-17T06:37:42.105Z,98151.03
2023-01-17T06:39:44.094Z,98159.75
2023-01-17T06:41:45.827Z,98149.44
2023-01-17T06:43:47.494Z,98166.63
2023-01-17T06:45:51.236Z,98162.47
2023-01-17T06:47:53.103Z,98147.25
2023-01-17T06:49:54.787Z,98159.88
2023-01-17T06:51:56.814Z,98168.44
2023-01-17T06:53:58.644Z,98151.53
2023-01-17T06:56:00.323Z,98168.75
2023-01-17T06:58:02.809Z,98160.56
2023-01-17T07:00:05.330Z,98165.63
2023-01-17T07:02:10.117Z,98159.41
2023-01-17T07:04:11.966Z,98169.22
2023-01-17T07:06:13.755Z,98083.25
2023-01-17T07:08:16.183Z,98169.59
2023-01-17T07:10:18.413Z,98163.69
2023-01-17T07:12:20.110Z,98167.97
2023-01-17T07:14:21.808Z,98163.22
2023-01-17T07:16:23.844Z,98142.63
2023-01-17T07:18:25.569Z,98179.28
2023-01-17T07:20:27.364Z,98161.13
2023-01-17T07:22:29.700Z,98172.91
2023-01-17T07:24:31.487Z,98171.94
2023-01-17T07:26:33.434Z,98144.25
2023-01-17T07:28:35.361Z,98180.31
2023-01-17T07:30:37.055Z,98181.16
2023-01-17T07:32:38.936Z,98185.06
2023-01-17T07:34:40.915Z,98171.78
2023-01-17T07:36:42.610Z,98187.81
2023-01-17T07:38:46.607Z,98193.25
2023-01-17T07:40:48.722Z,98180.78
2023-01-17T07:42:50.475Z,98164.59
2023-01-17T07:44:52.230Z,98179.97
2023-01-17T07:46:55.055Z,98155.78
2023-01-17T07:48:56.774Z,98185.72
2023-01-17T07:50:58.720Z,98167.88
2023-01-17T07:53:00.499Z,98169.34
2023-01-17T07:55:02.206Z,98168.38
2023-01-17T07:57:04.077Z,98171.31
2023-01-17T07:59:06.506Z,98163.44
2023-01-17T08:01:10.622Z,98162.16
2023-01-17T08:03:15.033Z,98162.16
2023-01-17T08:05:17.331Z,98173.59
2023-01-17T08:07:19.053Z,98164.25
2023-01-17T08:09:20.764Z,98178.53
2023-01-17T08:11:22.693Z,98187.06
2023-01-17T08:13:24.823Z,98174.56
2023-01-17T08:15:26.582Z,98193.91
2023-01-17T08:17:29.832Z,98198.16
2023-01-17T08:19:31.579Z,98184.06
2023-01-17T08:21:33.253Z,98186.22
2023-01-17T08:23:35.314Z,98204.56
2023-01-17T08:25:37.710Z,98211.09
2023-01-17T08:27:40.095Z,98213.41
2023-01-17T08:29:42.256Z,98197.31
2023-01-17T08:31:43.989Z,98188.66
2023-01-17T08:33:45.790Z,98175.53
2023-01-17T08:35:54.838Z,98190.44
2023-01-17T08:37:56.837Z,98205.34
2023-01-17T08:39:58.630Z,98207.50
2023-01-17T08:42:00.515Z,98178.16
2023-01-17T08:44:03.054Z,98183.75
2023-01-17T08:46:04.833Z,98197.84
2023-01-17T08:48:06.958Z,98193.25
2023-01-17T08:50:09.052Z,98184.06
2023-01-17T08:52:10.768Z,98190.81
2023-01-17T08:54:12.806Z,98208.63
2023-01-17T08:56:14.519Z,98158.38
2023-01-17T08:58:16.194Z,98214.53
2023-01-17T09:00:18.778Z,98221.75
2023-01-17T09:02:20.553Z,98223.06
2023-01-17T09:04:22.295Z,98225.00
2023-01-17T09:06:24.510Z,98214.34
2023-01-17T09:08:26.223Z,98232.03
2023-01-17T09:10:27.921Z,98235.47
2023-01-17T09:12:32.681Z,98209.94
2023-01-17T09:14:35.538Z,98235.47
2023-01-17T09:16:37.314Z,98240.69
2023-01-17T09:18:39.216Z,98242.50
2023-01-17T09:20:40.892Z,98215.19
2023-01-17T09:22:42.603Z,98244.31
2023-01-17T09:24:44.754Z,98248.28
2023-01-17T09:26:46.430Z,98227.31
2023-01-17T09:28:48.632Z,98248.91
2023-01-17T09:30:50.872Z,98228.47
2023-01-17T09:32:54.194Z,98240.28
2023-01-17T09:34:55.897Z,98239.75
2023-01-17T09:36:58.013Z,98232.72
2023-01-17T09:39:00.226Z,98222.25
2023-01-17T09:41:03.292Z,98231.56
2023-01-17T09:43:12.804Z,98231.22
2023-01-17T09:45:19.597Z,98214.66
2023-01-17T09:47:43.862Z,98232.38
2023-01-17T09:49:47.573Z,98204.34
2023-01-17T09:51:49.283Z,98227.94
2023-01-17T09:53:53.201Z,98235.13
2023-01-17T09:56:03.908Z,98231.53
2023-01-17T09:58:34.486Z,98216.44
2023-01-17T10:00:41.236Z,98240.81
2023-01-17T10:03:06.051Z,98228.06
2023-01-17T10:05:54.729Z,98238.88
2023-01-17T10:08:11.517Z,98245.25
2023-01-17T10:10:40.125Z,98231.78
2023-01-17T10:12:56.710Z,98238.31
2023-01-17T10:15:25.677Z,98238.47
2023-01-17T10:17:43.017Z,98238.50
2023-01-17T10:19:59.006Z,98215.69
2023-01-17T10:22:13.016Z,98232.47
2023-01-17T10:24:20.588Z,98234.19
2023-01-17T10:26:26.024Z,98239.56
2023-01-17T10:28:33.190Z,98232.31
2023-01-17T10:30:44.088Z,98232.66
2023-01-17T10:32:48.709Z,98237.88
2023-01-17T10:35:01.463Z,98236.84
2023-01-17T10:37:23.052Z,98245.44
2023-01-17T10:39:28.606Z,98231.81
2023-01-17T10:41:52.642Z,98243.25
2023-01-17T10:44:12.387Z,98238.84
2023-01-17T10:46:32.303Z,98246.44
2023-01-17T10:48:44.724Z,98231.59
2023-01-17T10:51:18.695Z,98240.94
2023-01-17T10:53:56.164Z,98237.44
2023-01-17T10:55:58.479Z,98249.69
2023-01-17T10:58:00.192Z,98248.25
2023-01-17T11:00:02.439Z,98239.94
2023-01-17T11:02:15.193Z,98248.34
2023-01-17T11:04:25.536Z,98258.22
2023-01-17T11:06:27.876Z,98230.84
2023-01-17T11:08:50.307Z,98249.41
2023-01-17T11:10:53.544Z,98229.34
2023-01-17T11:12:55.516Z,98244.81
2023-01-17T11:15:03.603Z,98249.56
2023-01-17T11:17:06.875Z,98248.19
2023-01-17T11:19:27.691Z,98237.53
2023-01-17T11:21:29.456Z,98249.84
2023-01-17T11:23:33.628Z,98222.31
2023-01-17T11:25:35.630Z,98245.25
2023-01-17T11:27:39.315Z,98247.81
2023-01-17T11:29:40.870Z,98247.19
2023-01-17T11:31:42.780Z,98244.91
2023-01-17T11:33:47.775Z,98240.31
2023-01-17T11:35:49.559Z,98240.75
2023-01-17T11:37:57.670Z,98240.06
2023-01-17T11:40:18.957Z,98240.28
2023-01-17T11:42:36.291Z,98243.69
2023-01-17T11:44:38.290Z,98235.19
2023-01-17T11:46:40.007Z,98215.75
2023-01-17T11:48:41.777Z,98246.63
2023-01-17T11:50:57.952Z,98242.28
2023-01-17T11:53:28.018Z,98246.09
2023-01-17T11:55:29.712Z,98244.81
2023-01-17T11:57:34.393Z,98245.28
2023-01-17T11:59:43.876Z,98238.19
2023-01-17T12:02:03.155Z,98250.00
2023-01-17T12:04:36.542Z,98252.09
2023-01-17T12:06:58.096Z,98259.53
2023-01-17T12:09:02.784Z,98256.16
2023-01-17T12:11:38.429Z,98246.72
2023-01-17T12:14:28.348Z,98251.88
2023-01-17T12:16:42.777Z,98255.44
2023-01-17T12:19:04.256Z,98199.25
2023-01-17T12:21:17.689Z,98257.06
2023-01-17T12:23:44.872Z,98253.00
2023-01-17T12:25:52.425Z,98265.50
2023-01-17T12:28:12.662Z,98250.50
2023-01-17T12:30:35.833Z,98248.41
2023-01-17T12:33:17.735Z,98246.41
2023-01-17T12:35:26.195Z,98247.97
2023-01-17T12:37:30.843Z,98260.25
2023-01-17T12:39:46.788Z,98250.06
2023-01-17T12:41:57.636Z,98247.66
2023-01-17T12:44:01.054Z,98262.81
2023-01-17T12:46:11.937Z,98265.34
2023-01-17T12:48:17.731Z,98267.06
2023-01-17T12:50:28.616Z,98264.06
2023-01-17T12:52:49.050Z,98281.06
2023-01-17T12:54:58.081Z,98283.88
2023-01-17T12:57:09.965Z,98281.41
2023-01-17T12:59:20.012Z,98285.69
2023-01-17T13:01:36.122Z,98278.44
2023-01-17T13:03:57.675Z,98280.50
2023-01-17T13:06:02.815Z,98277.69
2023-01-17T13:08:28.521Z,98285.31
2023-01-17T13:10:40.596Z,98270.25
2023-01-17T13:12:42.575Z,98277.16
2023-01-17T13:14:47.670Z,98295.03
2023-01-17T13:16:55.905Z,98292.13
2023-01-17T13:19:04.128Z,98276.25
2023-01-17T13:21:35.158Z,98292.03
2023-01-17T13:23:54.477Z,98297.72
2023-01-17T13:25:59.206Z,98301.19
2023-01-17T13:28:10.778Z,98296.75
2023-01-17T13:30:56.122Z,98300.00
2023-01-17T13:33:26.707Z,98298.13
2023-01-17T13:35:48.393Z,98303.22
2023-01-17T13:38:23.969Z,98269.59
2023-01-17T13:40:49.664Z,98305.25
2023-01-17T13:43:00.826Z,98279.72
2023-01-17T13:45:30.383Z,98297.50
2023-01-17T13:47:32.263Z,98297.47
2023-01-17T13:49:45.650Z,98299.78
2023-01-17T13:52:27.229Z,98297.97
2023-01-17T13:54:33.067Z,98300.66
2023-01-17T13:56:36.239Z,98280.13
2023-01-17T13:59:00.291Z,98313.22
2023-01-17T14:01:02.128Z,98290.97
2023-01-17T14:03:04.471Z,98311.75
2023-01-17T14:05:17.784Z,98303.94
2023-01-17T14:07:25.766Z,98300.34
2023-01-17T14:09:30.434Z,98305.31
2023-01-17T14:11:34.103Z,98316.06
2023-01-17T14:13:35.832Z,98316.13
2023-01-17T14:15:49.935Z,98292.38
2023-01-17T14:18:04.804Z,98322.56
2023-01-17T14:20:09.645Z,98323.09
2023-01-17T14:22:20.037Z,98329.19
2023-01-17T14:24:22.040Z,98333.63
2023-01-17T14:26:29.888Z,98339.53
2023-01-17T14:28:32.214Z,98334.69
2023-01-17T14:30:35.723Z,98341.63
2023-01-17T14:32:38.955Z,98359.28
2023-01-17T14:34:40.808Z,98370.31
2023-01-17T14:36:42.870Z,98373.41
2023-01-17T14:38:45.325Z,98356.22
2023-01-17T14:41:00.968Z,98376.53
2023-01-17T14:43:08.080Z,98373.28
2023-01-17T14:45:15.030Z,98386.09
2023-01-17T14:47:17.187Z,98378.41
2023-01-17T14:49:23.670Z,98388.44
2023-01-17T14:51:25.585Z,98379.97
2023-01-17T14:53:29.117Z,98397.16
2023-01-17T14:55:30.996Z,98392.44
2023-01-17T14:57:32.732Z,98385.06
2023-01-17T14:59:34.401Z,98401.81
2023-01-17T15:01:36.539Z,98399.81
2023-01-17T15:03:54.110Z,98370.16
2023-01-17T15:05:57.916Z,98380.69
2023-01-17T15:07:59.740Z,98403.31
2023-01-17T15:10:02.929Z,98406.59
2023-01-17T15:12:08.664Z,98412.50
2023-01-17T15:14:20.929Z,98417.91
2023-01-17T15:16:27.147Z,98429.41
2023-01-17T15:18:28.962Z,98433.16
2023-01-17T15:20:30.792Z,98432.69
2023-01-17T15:22:33.397Z,98437.69
2023-01-17T15:24:47.181Z,98454.03
2023-01-17T15:26:49.451Z,98456.63
2023-01-17T15:28:53.327Z,98461.72
2023-01-17T15:31:11.719Z,98469.06
2023-01-17T15:33:17.588Z,98461.78
2023-01-17T15:35:20.083Z,98467.78
2023-01-17T15:37:37.649Z,98482.13
2023-01-17T15:39:40.948Z,98470.69
2023-01-17T15:41:42.844Z,98470.25
2023-01-17T15:43:45.335Z,98488.84
2023-01-17T15:45:57.050Z,98490.50
2023-01-17T15:48:40.406Z,98502.81
2023-01-17T15:50:42.142Z,98505.94
2023-01-17T15:52:55.455Z,98503.47
2023-01-17T15:55:14.581Z,98511.69
2023-01-17T15:57:28.367Z,98506.63
2023-01-17T16:00:08.741Z,98516.50
2023-01-17T16:02:31.852Z,98508.59
2023-01-17T16:04:35.487Z,98530.75
2023-01-17T16:06:38.095Z,98524.81
2023-01-17T16:08:51.357Z,98530.56
2023-01-17T16:10:55.545Z,98528.56
2023-01-17T16:12:58.119Z,98527.44
2023-01-17T16:15:11.647Z,98533.38
2023-01-17T16:17:15.996Z,98528.59
2023-01-17T16:19:17.910Z,98527.59
2023-01-17T16:21:21.768Z,98518.78
2023-01-17T16:23:23.599Z,98531.41
2023-01-17T16:25:25.539Z,98524.19
2023-01-17T16:27:27.236Z,98525.00
2023-01-17T16:29:28.935Z,98524.19
2023-01-17T16:31:30.714Z,98504.47
2023-01-17T16:33:32.403Z,98531.88
2023-01-17T16:35:34.740Z,98519.44
2023-01-17T16:37:36.542Z,98517.97
2023-01-17T16:39:38.764Z,98511.25
2023-01-17T16:41:40.425Z,98508.13
2023-01-17T16:43:42.237Z,98504.97
2023-01-17T16:45:49.718Z,98507.44
2023-01-17T16:47:53.289Z,98509.59
2023-01-17T16:49:55.290Z,98520.25
2023-01-17T16:51:57.016Z,98520.09
2023-01-17T16:53:58.750Z,98518.44
2023-01-17T16:56:08.246Z,98510.38
2023-01-17T16:58:10.251Z,98516.63
2023-01-17T17:00:12.522Z,98506.09
2023-01-17T17:02:14.352Z,98511.69
2023-01-17T17:04:16.419Z,98512.22
2023-01-17T17:06:18.430Z,98514.84
2023-01-17T17:08:20.313Z,98474.94
2023-01-17T17:10:22.558Z,98476.13
2023-01-17T17:12:24.308Z,98492.22
2023-01-17T17:14:26.465Z,98497.63
2023-01-17T17:16:29.682Z,98502.06
2023-01-17T17:18:31.535Z,98484.59
2023-01-17T17:20:33.524Z,98493.47
2023-01-17T17:22:35.185Z,98505.31
2023-01-17T17:24:38.810Z,98505.75
2023-01-17T17:26:41.441Z,98512.81
2023-01-17T17:28:43.118Z,98511.50
2023-01-17T17:30:45.000Z,98511.50
2023-01-17T17:32:47.070Z,98502.47
2023-01-17T17:34:48.824Z,98488.97
2023-01-17T17:36:51.987Z,98515.75
2023-01-17T17:38:55.390Z,98506.22
2023-01-17T17:41:07.802Z,98527.50
2023-01-17T17:43:18.867Z,98531.31
2023-01-17T17:45:20.571Z,98528.66
2023-01-17T17:47:22.404Z,98529.16
2023-01-17T17:49:27.807Z,98497.78
2023-01-17T17:51:31.127Z,98525.16
2023-01-17T17:53:33.621Z,98536.91
2023-01-17T17:55:35.335Z,98522.19
2023-01-17T17:57:37.708Z,98531.19
2023-01-17T17:59:39.429Z,98518.03
2023-01-17T18:01:41.709Z,98543.31
2023-01-17T18:03:43.661Z,98534.84
2023-01-17T18:05:45.395Z,98561.63
2023-01-17T18:07:47.153Z,98552.91
2023-01-17T18:09:48.951Z,98524.72
2023-01-17T18:11:50.681Z,98562.19
2023-01-17T18:13:53.359Z,98562.94
2023-01-17T18:16:08.509Z,98558.38
2023-01-17T18:18:10.251Z,98563.00
2023-01-17T18:20:12.126Z,98562.78
2023-01-17T18:22:13.916Z,98562.72
2023-01-17T18:24:17.245Z,98568.69
2023-01-17T18:26:21.972Z,98564.13
2023-01-17T18:28:23.668Z,98555.25
2023-01-17T18:30:25.362Z,98567.88
2023-01-17T18:32:27.224Z,98563.91
2023-01-17T18:34:28.959Z,98569.00
2023-01-17T18:36:30.734Z,98565.31
2023-01-17T18:38:40.074Z,98567.78
2023-01-17T18:40:41.778Z,98565.63
2023-01-17T18:42:43.446Z,98568.03
2023-01-17T18:44:45.303Z,98576.16
2023-01-17T18:46:47.362Z,98546.66
2023-01-17T18:48:49.148Z,98561.78
2023-01-17T18:51:03.721Z,98568.28
2023-01-17T18:53:05.534Z,98548.44
2023-01-17T18:55:07.581Z,98566.56
2023-01-17T18:57:09.328Z,98586.84
2023-01-17T18:59:15.495Z,98583.81
2023-01-17T19:01:21.902Z,98587.97
2023-01-17T19:03:27.212Z,98566.47
2023-01-17T19:05:28.962Z,98570.78
2023-01-17T19:07:30.663Z,98593.69
2023-01-17T19:09:32.489Z,98600.09
2023-01-17T19:11:35.613Z,98609.97
2023-01-17T19:13:39.216Z,98591.06
2023-01-17T19:15:40.874Z,98609.31
2023-01-17T19:17:42.568Z,98569.25
2023-01-17T19:19:44.560Z,98604.22
2023-01-17T19:21:46.403Z,98610.44
2023-01-17T19:23:48.595Z,98620.38
2023-01-17T19:25:53.837Z,98627.44
2023-01-17T19:27:55.722Z,98594.59
2023-01-17T19:29:57.687Z,98627.00
2023-01-17T19:31:59.410Z,98633.34
2023-01-17T19:34:01.107Z,98638.00
2023-01-17T19:36:05.348Z,98642.25
2023-01-17T19:38:07.269Z,98651.59
2023-01-17T19:40:09.657Z,98648.69
2023-01-17T19:42:11.477Z,98645.41
2023-01-17T19:44:14.399Z,98650.47
2023-01-17T19:46:18.071Z,98666.56
2023-01-17T19:48:20.621Z,98639.25
2023-01-17T19:50:24.437Z,98667.13
2023-01-17T19:52:26.181Z,98668.66
2023-01-17T19:54:28.205Z,98670.47
2023-01-17T19:56:30.201Z,98683.66
2023-01-17T19:58:31.961Z,98681.31
2023-01-17T20:00:33.825Z,98661.25
2023-01-17T20:02:37.627Z,98680.75
2023-01-17T20:04:39.403Z,98684.06
2023-01-17T20:06:41.252Z,98680.50
2023-01-17T20:08:43.130Z,98700.41
2023-01-17T20:10:44.917Z,98709.63
2023-01-17T20:12:46.725Z,98700.03
2023-01-17T20:14:48.395Z,98691.06
2023-01-17T20:16:50.331Z,98696.59
2023-01-17T20:18:52.874Z,98706.19
2023-01-17T20:20:57.223Z,98709.63
2023-01-17T20:22:59.366Z,98715.00
2023-01-17T20:25:01.174Z,98715.38
2023-01-17T20:27:02.951Z,98716.50
2023-01-17T20:29:08.398Z,98715.41
2023-01-17T20:31:19.386Z,98720.19
2023-01-17T20:33:22.045Z,98719.38
2023-01-17T20:35:23.767Z,98703.97
2023-01-17T20:37:25.598Z,98724.19
2023-01-17T20:39:27.370Z,98719.91
2023-01-17T20:41:37.625Z,98724.56
2023-01-17T20:43:39.631Z,98731.44
2023-01-17T20:45:41.393Z,98738.75
2023-01-17T20:47:43.287Z,98738.16
2023-01-17T20:49:45.087Z,98732.66
2023-01-17T20:51:47.500Z,98737.19
2023-01-17T20:53:54.748Z,98745.00
2023-01-17T20:55:57.257Z,98738.16
2023-01-17T20:57:59.245Z,98741.03
2023-01-17T21:00:01.167Z,98742.50
2023-01-17T21:02:03.246Z,98741.13
2023-01-17T21:04:06.675Z,98727.69
2023-01-17T21:06:10.678Z,98721.91
2023-01-17T21:08:12.456Z,98724.75
2023-01-17T21:10:14.246Z,98725.72
2023-01-17T21:12:16.014Z,98730.84
2023-01-17T21:14:17.975Z,98738.94
2023-01-17T21:16:22.017Z,98739.66
2023-01-17T21:18:26.431Z,98741.00
2023-01-17T21:20:28.235Z,98740.44
2023-01-17T21:22:29.958Z,98738.41
2023-01-17T21:24:31.907Z,98741.19
2023-01-17T21:26:33.830Z,98700.03
2023-01-17T21:28:37.567Z,98734.84
2023-01-17T21:30:39.351Z,98736.34
2023-01-17T21:32:41.247Z,98741.84
2023-01-17T21:34:42.951Z,98731.09
2023-01-17T21:36:44.821Z,98725.88
2023-01-17T21:38:57.999Z,98740.06
2023-01-17T21:40:59.712Z,98737.94
2023-01-17T21:43:01.820Z,98752.38
2023-01-17T21:45:03.907Z,98751.56
2023-01-17T21:47:05.628Z,98720.69
2023-01-17T21:49:08.798Z,98755.94
2023-01-17T21:51:12.854Z,98745.00
2023-01-17T21:53:14.591Z,98741.38
2023-01-17T21:55:16.432Z,98716.56
2023-01-17T21:57:21.027Z,98751.03
2023-01-17T21:59:22.763Z,98756.94
2023-01-17T22:01:32.133Z,98752.16
2023-01-17T22:03:34.085Z,98722.03
2023-01-17T22:05:35.952Z,98744.50
2023-01-17T22:07:38.011Z,98723.03
2023-01-17T22:09:39.851Z,98743.22
2023-01-17T22:11:41.570Z,98708.41
2023-01-17T22:13:44.679Z,98737.19
2023-01-17T22:15:46.820Z,98747.25
2023-01-17T22:17:48.574Z,98689.09
2023-01-17T22:19:50.372Z,98744.41
2023-01-17T22:21:54.737Z,98743.56
2023-01-17T22:23:58.780Z,98740.59
2023-01-17T22:26:05.448Z,98735.47
2023-01-17T22:28:07.405Z,98717.91
2023-01-17T22:30:09.764Z,98735.75
2023-01-17T22:32:11.461Z,98732.31
2023-01-17T22:34:13.292Z,98735.34
2023-01-17T22:36:15.299Z,98698.50
2023-01-17T22:38:17.036Z,98740.50
2023-01-17T22:40:18.977Z,98744.78
2023-01-17T22:42:20.680Z,98731.00
2023-01-17T22:44:22.485Z,98735.47
2023-01-17T22:46:27.752Z,98746.69
2023-01-17T22:48:31.355Z,98728.47
2023-01-17T22:50:32.903Z,98756.38
2023-01-17T22:52:34.992Z,98746.13
2023-01-17T22:54:36.665Z,98744.56
2023-01-17T22:56:38.368Z,98728.00
2023-01-17T22:58:41.793Z,98711.84
2023-01-17T23:00:43.462Z,98724.31
2023-01-17T23:02:45.220Z,98708.53
2023-01-17T23:04:47.060Z,98735.06
2023-01-17T23:06:48.732Z,98738.09
2023-01-17T23:08:52.664Z,98728.59
2023-01-17T23:10:54.618Z,98722.25
2023-01-17T23:12:56.594Z,98740.88
2023-01-17T23:14:58.462Z,98737.88
2023-01-17T23:17:02.940Z,98743.06
2023-01-17T23:19:04.615Z,98742.78
2023-01-17T23:21:08.092Z,98744.34
2023-01-17T23:23:09.827Z,98734.31
2023-01-17T23:25:13.407Z,98739.97
2023-01-17T23:27:14.930Z,98751.81
2023-01-17T23:29:17.127Z,98731.22
2023-01-17T23:31:18.885Z,98750.31
2023-01-17T23:33:20.599Z,98729.97
2023-01-17T23:35:25.236Z,98744.41
2023-01-17T23:37:28.368Z,98720.59
2023-01-17T23:39:30.051Z,98741.31
2023-01-17T23:41:32.032Z,98744.72
2023-01-17T23:43:34.772Z,98745.41
2023-01-17T23:45:37.973Z,98737.78
2023-01-17T23:47:40.173Z,98734.72
2023-01-17T23:49:41.886Z,98739.13
2023-01-17T23:51:43.732Z,98728.91
2023-01-17T23:53:45.696Z,98723.63
2023-01-17T23:55:48.146Z,98711.84
2023-01-17T23:57:50.793Z,98735.00
2023-01-17T23:59:52.906Z,98743.16
